Time;durP1;ratioP1;P1;durP2;ratioP2;P2;SDS_P1;SDS_P2;PMS_P1;PMS_P2;Temp;Humidity;BMP_temperature;BMP_pressure;BME280_temperature;BME280_humidity;BME280_pressure;Samples;Min_cycle;Max_cycle;Signal;HPM_P1;HPM_P2
2022/01/05 00:01:00;;;;;;;4.88;0.88;;;2.60;99.90;;;;;;5085923;28;20048;-80
2022/01/05 00:03:26;;;;;;;3.97;0.57;;;2.50;99.90;;;;;;5085369;28;20048;-80
2022/01/05 00:05:52;;;;;;;4.88;1.00;;;2.50;99.90;;;;;;5085978;28;20055;-80
2022/01/05 00:08:20;;;;;;;21.48;0.95;;;2.40;99.90;;;;;;5085906;28;20047;-81
2022/01/05 00:10:45;;;;;;;7.57;0.65;;;2.40;99.90;;;;;;5085306;28;20047;-81
2022/01/05 00:13:11;;;;;;;5.75;1.27;;;2.40;99.90;;;;;;5085315;28;20047;-81
2022/01/05 00:15:37;;;;;;;5.90;0.85;;;2.30;99.90;;;;;;5085795;28;20046;-80
2022/01/05 00:18:02;;;;;;;3.08;0.50;;;2.30;99.90;;;;;;5085865;28;20044;-81
2022/01/05 00:20:30;;;;;;;11.27;3.50;;;2.30;99.90;;;;;;5050241;28;20052;-81
2022/01/05 00:22:56;;;;;;;4.20;0.57;;;2.20;99.90;;;;;;5086176;28;20399;-81
2022/01/05 00:25:21;;;;;;;9.05;1.70;;;2.20;99.90;;;;;;5050292;28;20097;-81
2022/01/05 00:27:47;;;;;;;5.82;0.70;;;2.20;99.90;;;;;;5067373;28;20040;-81
2022/01/05 00:30:13;;;;;;;10.60;0.77;;;2.40;99.90;;;;;;5033619;28;20080;-81
2022/01/05 00:32:38;;;;;;;7.13;0.57;;;2.20;99.90;;;;;;5067186;28;20048;-81
2022/01/05 00:35:05;;;;;;;6.95;0.82;;;2.10;99.90;;;;;;5067130;28;20044;-81
2022/01/05 00:37:30;;;;;;;7.32;1.00;;;2.20;99.90;;;;;;5084750;28;20479;-81
2022/01/05 00:39:56;;;;;;;1.88;0.50;;;3.60;99.90;;;;;;5067418;28;20105;-80
2022/01/05 00:42:22;;;;;;;13.40;1.25;;;2.10;99.90;;;;;;5066575;28;20048;-81
2022/01/05 00:44:47;;;;;;;4.35;0.70;;;2.10;99.90;;;;;;5049873;28;20043;-81
2022/01/05 00:47:13;;;;;;;10.10;0.77;;;2.10;99.90;;;;;;5085578;28;20079;-81
2022/01/05 00:49:39;;;;;;;3.53;0.77;;;2.10;99.90;;;;;;5085161;28;20656;-81
2022/01/05 00:52:04;;;;;;;7.53;0.90;;;2.10;99.90;;;;;;5085191;28;20437;-81
2022/01/05 00:54:30;;;;;;;7.28;0.90;;;2.20;99.90;;;;;;5066279;28;20036;-81
2022/01/05 00:56:56;;;;;;;9.15;1.20;;;2.30;99.90;;;;;;5085174;28;20050;-81
2022/01/05 00:59:22;;;;;;;6.68;1.05;;;2.30;99.90;;;;;;5049153;28;20052;-81
2022/01/05 01:01:48;;;;;;;12.52;1.13;;;2.40;99.90;;;;;;5084576;28;20597;-81
2022/01/05 01:04:14;;;;;;;18.23;1.48;;;2.40;99.90;;;;;;5066577;28;20055;-81
2022/01/05 01:06:39;;;;;;;10.75;1.85;;;2.40;99.90;;;;;;5066621;28;20051;-81
2022/01/05 01:09:05;;;;;;;13.93;1.17;;;2.50;99.90;;;;;;5066204;28;20403;-81
2022/01/05 01:11:31;;;;;;;9.88;1.02;;;2.50;99.90;;;;;;5049435;28;20048;-81
2022/01/05 01:13:57;;;;;;;13.48;1.40;;;2.50;99.90;;;;;;5066877;28;20123;-81
2022/01/05 01:16:22;;;;;;;7.53;0.95;;;2.50;99.90;;;;;;5065708;28;20487;-81
2022/01/05 01:18:48;;;;;;;12.13;1.13;;;2.60;99.90;;;;;;5049786;28;20055;-81
2022/01/05 01:21:14;;;;;;;8.85;0.88;;;2.60;99.90;;;;;;5066571;28;20603;-81
2022/01/05 01:23:42;;;;;;;10.90;1.40;;;2.60;99.90;;;;;;5065894;28;20554;-81
2022/01/05 01:26:08;;;;;;;6.07;1.05;;;2.70;99.90;;;;;;5065519;28;20052;-81
2022/01/05 01:28:34;;;;;;;9.07;1.23;;;2.70;99.90;;;;;;5084160;28;20047;-81
2022/01/05 01:31:00;;;;;;;14.43;1.67;;;2.80;99.90;;;;;;5084468;28;20130;-81
2022/01/05 01:33:25;;;;;;;14.63;0.98;;;2.80;99.90;;;;;;5083470;28;20048;-81
2022/01/05 01:35:51;;;;;;;9.55;2.13;;;2.80;99.90;;;;;;5066426;28;20047;-80
2022/01/05 01:38:17;;;;;;;12.15;1.15;;;3.00;99.90;;;;;;5048997;28;20040;-81
2022/01/05 01:40:43;;;;;;;9.60;1.20;;;2.90;99.90;;;;;;5065434;28;20071;-81
2022/01/05 01:43:08;;;;;;;13.07;1.60;;;3.10;99.90;;;;;;5032660;28;20036;-81
2022/01/05 01:45:34;;;;;;;13.45;1.00;;;4.00;99.90;;;;;;5048934;28;20127;-81
2022/01/05 01:48:00;;;;;;;12.80;1.70;;;4.10;99.90;;;;;;5065904;28;20071;-81
2022/01/05 01:50:26;;;;;;;8.77;1.13;;;3.00;99.90;;;;;;5083787;28;20075;-81
2022/01/05 01:52:52;;;;;;;5.35;1.58;;;3.00;99.90;;;;;;5084049;28;20130;-81
2022/01/05 01:55:19;;;;;;;8.07;1.35;;;3.00;99.90;;;;;;5083625;28;20036;-81
2022/01/05 01:57:45;;;;;;;14.00;1.67;;;3.00;99.90;;;;;;5048887;28;20167;-81
2022/01/05 02:00:12;;;;;;;7.85;1.60;;;4.40;99.90;;;;;;5083922;28;20431;-81
2022/01/05 02:02:38;;;;;;;10.73;1.17;;;3.10;99.90;;;;;;5032211;28;20401;-81
2022/01/05 02:05:06;;;;;;;7.60;0.88;;;3.10;99.90;;;;;;5065886;28;20040;-81
2022/01/05 02:07:32;;;;;;;11.80;1.00;;;3.10;99.90;;;;;;5083595;28;20044;-81
2022/01/05 02:09:57;;;;;;;7.72;1.45;;;3.20;99.90;;;;;;5083048;28;20040;-81
2022/01/05 02:12:26;;;;;;;7.53;1.10;;;3.20;99.90;;;;;;5084305;28;20047;-81
2022/01/05 02:14:53;;;;;;;6.00;1.23;;;3.10;99.90;;;;;;5083960;28;20044;-81
2022/01/05 02:17:23;;;;;;;6.20;1.60;;;3.60;99.90;;;;;;5083471;28;20052;-81
2022/01/05 02:19:48;;;;;;;8.60;1.50;;;3.20;99.90;;;;;;5083282;28;20060;-81
2022/01/05 02:22:14;;;;;;;15.18;1.42;;;3.20;99.90;;;;;;5083801;28;20051;-82
2022/01/05 02:24:45;;;;;;;17.90;1.60;;;3.20;99.90;;;;;;5065037;28;20036;-81
2022/01/05 02:27:11;;;;;;;10.75;1.52;;;3.20;99.90;;;;;;5084164;28;20051;-81
2022/01/05 02:29:37;;;;;;;11.13;1.65;;;4.10;99.90;;;;;;5083359;28;20619;-81
2022/01/05 02:32:03;;;;;;;12.75;1.42;;;3.20;99.90;;;;;;5065163;28;20048;-81
2022/01/05 02:34:29;;;;;;;7.22;1.75;;;3.20;99.90;;;;;;5065649;28;20083;-81
2022/01/05 02:36:54;;;;;;;7.78;0.90;;;3.60;99.90;;;;;;5064960;28;20536;-81
2022/01/05 02:39:20;;;;;;;15.57;1.55;;;3.20;99.90;;;;;;5083710;28;20498;-81
2022/01/05 02:41:46;;;;;;;12.77;1.42;;;3.20;99.90;;;;;;5083422;28;20068;-81
2022/01/05 02:44:11;;;;;;;12.15;1.55;;;3.20;99.90;;;;;;5065372;28;20135;-81
2022/01/05 02:46:37;;;;;;;17.50;1.73;;;3.20;99.90;;;;;;5083169;28;20044;-81
2022/01/05 02:49:04;;;;;;;14.60;1.65;;;3.20;99.90;;;;;;5083674;28;20089;-81
2022/01/05 02:51:30;;;;;;;13.45;1.52;;;3.30;99.90;;;;;;5064152;28;20048;-80
2022/01/05 02:53:56;;;;;;;15.35;1.50;;;3.30;99.90;;;;;;5083016;28;20123;-80
2022/01/05 02:56:22;;;;;;;9.77;1.23;;;3.30;99.90;;;;;;5083166;28;20510;-80
2022/01/05 02:58:48;;;;;;;19.90;2.38;;;3.30;99.90;;;;;;5083020;28;20048;-80
2022/01/05 03:01:14;;;;;;;11.00;1.27;;;4.50;99.90;;;;;;5065332;28;20048;-80
2022/01/05 03:03:40;;;;;;;15.30;1.52;;;3.40;99.90;;;;;;5065239;28;20111;-80
2022/01/05 03:06:05;;;;;;;6.30;1.10;;;3.50;99.90;;;;;;5083764;28;20036;-79
2022/01/05 03:08:31;;;;;;;7.32;1.65;;;3.60;99.90;;;;;;5065592;28;20391;-80
2022/01/05 03:10:57;;;;;;;16.10;1.45;;;3.60;99.90;;;;;;5064939;28;20084;-80
2022/01/05 03:13:23;;;;;;;10.45;1.27;;;3.70;99.90;;;;;;5049037;28;20394;-80
2022/01/05 03:15:51;;;;;;;13.23;1.70;;;3.70;99.90;;;;;;5083111;28;20148;-80
2022/01/05 03:18:17;;;;;;;11.10;1.38;;;3.80;99.90;;;;;;5065065;28;20503;-80
2022/01/05 03:20:45;;;;;;;8.75;1.65;;;3.80;99.90;;;;;;5083367;28;20055;-80
2022/01/05 03:23:11;;;;;;;10.80;1.80;;;3.80;99.90;;;;;;5087007;28;20044;-80
2022/01/05 03:25:37;;;;;;;11.85;1.33;;;3.90;99.90;;;;;;5086779;28;20047;-80
2022/01/05 03:28:03;;;;;;;9.30;1.38;;;3.80;99.90;;;;;;5086684;28;20070;-81
2022/01/05 03:30:30;;;;;;;8.52;1.17;;;3.80;99.90;;;;;;5068627;28;20054;-80
2022/01/05 03:35:31;;;;;;;14.30;1.42;;;3.80;99.90;;;;;;5086861;28;20403;-80
2022/01/05 03:37:57;;;;;;;10.85;1.05;;;3.70;99.90;;;;;;5086330;28;20445;-80
2022/01/05 03:40:23;;;;;;;9.05;1.05;;;3.70;99.90;;;;;;5068082;28;20036;-80
2022/01/05 03:42:49;;;;;;;9.70;1.33;;;3.70;99.90;;;;;;5067875;28;20130;-80
2022/01/05 03:45:15;;;;;;;9.73;0.95;;;3.70;99.90;;;;;;5050797;28;20132;-80
2022/01/05 03:47:40;;;;;;;9.18;1.13;;;3.80;99.90;;;;;;5068228;28;20087;-80
2022/01/05 03:50:07;;;;;;;9.05;0.98;;;3.70;99.90;;;;;;5050874;28;20458;-80
2022/01/05 03:52:33;;;;;;;8.63;0.88;;;3.70;99.90;;;;;;5068163;28;20138;-80
2022/01/05 03:54:59;;;;;;;6.90;1.30;;;3.70;99.90;;;;;;5068157;28;20123;-80
2022/01/05 03:57:26;;;;;;;12.23;1.92;;;3.70;99.90;;;;;;5067608;28;20492;-80
2022/01/05 03:59:52;;;;;;;9.43;1.38;;;3.90;99.90;;;;;;5067318;28;20051;-81
2022/01/05 04:02:18;;;;;;;8.95;1.25;;;3.70;99.90;;;;;;5050288;28;20051;-80
2022/01/05 04:04:45;;;;;;;15.80;1.95;;;3.70;99.90;;;;;;5067832;28;20036;-80
2022/01/05 04:07:11;;;;;;;17.13;2.42;;;3.70;99.90;;;;;;5067583;28;20426;-80
2022/01/05 04:09:37;;;;;;;15.50;1.40;;;3.60;99.90;;;;;;5034631;28;20040;-80
2022/01/05 04:12:03;;;;;;;8.70;1.30;;;3.60;99.90;;;;;;5067659;28;20048;-79
2022/01/05 04:14:29;;;;;;;4.22;0.80;;;3.70;99.90;;;;;;5067826;28;20063;-80
2022/01/05 04:16:55;;;;;;;9.38;0.85;;;3.70;99.90;;;;;;5051030;28;20044;-80
2022/01/05 04:19:20;;;;;;;8.65;1.35;;;3.70;99.90;;;;;;5066850;28;20064;-80
2022/01/05 04:21:46;;;;;;;8.30;0.80;;;3.70;99.90;;;;;;5067634;28;20056;-80
2022/01/05 04:24:12;;;;;;;12.25;0.90;;;3.60;99.90;;;;;;5050084;28;20052;-81
2022/01/05 04:26:37;;;;;;;4.82;0.45;;;3.60;99.90;;;;;;5067745;28;20047;-81
2022/01/05 04:29:03;;;;;;;9.30;1.00;;;3.70;99.90;;;;;;5050214;28;20083;-81
2022/01/05 04:31:29;;;;;;;7.47;0.80;;;3.70;99.90;;;;;;5067367;28;20048;-81
2022/01/05 04:33:54;;;;;;;3.50;0.50;;;3.60;99.90;;;;;;5084412;28;20052;-81
2022/01/05 04:36:20;;;;;;;9.13;0.73;;;3.60;99.90;;;;;;5085369;28;20542;-81
2022/01/05 04:38:46;;;;;;;6.72;0.60;;;4.00;99.90;;;;;;5085631;28;20036;-80
2022/01/05 04:41:11;;;;;;;8.57;0.80;;;3.90;99.90;;;;;;5085207;28;20040;-81
2022/01/05 04:43:37;;;;;;;12.98;0.98;;;3.60;99.90;;;;;;5085654;28;20051;-81
2022/01/05 04:46:03;;;;;;;5.25;0.77;;;3.50;99.90;;;;;;5066133;28;20140;-81
2022/01/05 04:48:29;;;;;;;7.50;1.10;;;3.50;99.90;;;;;;5067258;28;20056;-81
2022/01/05 04:50:55;;;;;;;10.80;0.95;;;3.50;99.90;;;;;;5050214;28;20051;-81
2022/01/05 04:53:21;;;;;;;7.10;0.70;;;3.50;99.90;;;;;;5066222;28;20480;-79
2022/01/05 04:55:47;;;;;;;4.65;0.80;;;3.50;99.90;;;;;;5050508;28;20047;-79
2022/01/05 04:58:13;;;;;;;4.18;0.50;;;3.50;99.90;;;;;;5049283;28;20039;-80
2022/01/05 05:00:38;;;;;;;12.13;1.67;;;3.50;99.90;;;;;;5084084;28;20376;-80
2022/01/05 05:03:04;;;;;;;8.65;0.95;;;3.60;99.90;;;;;;5066099;28;20825;-80
2022/01/05 05:05:30;;;;;;;7.18;0.98;;;3.60;99.90;;;;;;5049714;28;20035;-80
2022/01/05 05:07:57;;;;;;;4.85;0.90;;;3.70;99.90;;;;;;5066091;28;20044;-80
2022/01/05 05:10:24;;;;;;;8.27;0.88;;;3.70;99.90;;;;;;5049697;28;20480;-80
2022/01/05 05:12:49;;;;;;;14.02;1.35;;;3.70;99.90;;;;;;5066138;28;20048;-80
2022/01/05 05:15:16;;;;;;;10.18;1.30;;;3.70;99.90;;;;;;5066084;28;20336;-80
2022/01/05 05:17:42;;;;;;;10.77;1.25;;;3.80;99.90;;;;;;5066700;28;20091;-80
2022/01/05 05:20:08;;;;;;;13.02;1.55;;;3.80;99.90;;;;;;5048545;28;20067;-80
2022/01/05 05:22:35;;;;;;;14.18;1.60;;;3.80;99.90;;;;;;5049352;28;20040;-80
2022/01/05 05:25:02;;;;;;;14.23;1.75;;;3.90;99.90;;;;;;5049144;28;20075;-80
2022/01/05 05:27:28;;;;;;;15.02;1.50;;;3.90;99.90;;;;;;5049084;28;20047;-80
2022/01/05 05:29:54;;;;;;;8.30;1.40;;;4.00;99.90;;;;;;5065911;28;20124;-81
2022/01/05 05:32:20;;;;;;;14.95;1.20;;;4.00;99.90;;;;;;5065980;28;20097;-81
2022/01/05 05:34:45;;;;;;;19.25;1.98;;;4.00;99.90;;;;;;5066816;28;20479;-80
2022/01/05 05:37:11;;;;;;;12.52;1.42;;;4.10;99.90;;;;;;5048685;28;20510;-81
2022/01/05 05:39:37;;;;;;;12.50;2.67;;;4.10;99.90;;;;;;5066327;28;20043;-81
2022/01/05 05:42:03;;;;;;;7.93;1.65;;;4.70;99.90;;;;;;5065815;28;20044;-80
2022/01/05 05:44:28;;;;;;;4.55;0.98;;;4.20;99.90;;;;;;5032608;28;20134;-80
2022/01/05 05:46:54;;;;;;;10.10;1.30;;;5.10;99.90;;;;;;5083973;28;20040;-81
2022/01/05 05:49:20;;;;;;;4.35;0.80;;;4.10;99.90;;;;;;5084021;28;20040;-81
2022/01/05 05:51:45;;;;;;;5.85;1.00;;;4.10;99.90;;;;;;5084273;28;20048;-83
2022/01/05 05:54:11;;;;;;;8.27;0.85;;;4.00;99.90;;;;;;5083820;28;20051;-82
2022/01/05 05:56:37;;;;;;;7.05;0.88;;;3.90;99.90;;;;;;5083985;28;20295;-81
2022/01/05 05:59:03;;;;;;;13.45;1.05;;;3.80;99.90;;;;;;5083673;28;20040;-82
2022/01/05 06:01:29;;;;;;;6.25;0.88;;;3.80;99.90;;;;;;5065570;28;20376;-82
2022/01/05 06:03:55;;;;;;;6.03;0.93;;;3.80;99.90;;;;;;5065181;28;20140;-82
2022/01/05 06:06:21;;;;;;;6.60;0.90;;;4.40;99.90;;;;;;5048232;28;20078;-82
2022/01/05 06:08:46;;;;;;;10.38;1.25;;;3.80;99.90;;;;;;5083977;28;20523;-82
2022/01/05 06:11:12;;;;;;;11.00;0.98;;;3.80;99.90;;;;;;5083675;28;20047;-83
2022/01/05 06:13:38;;;;;;;9.48;1.45;;;3.90;99.90;;;;;;5066013;28;20542;-83
2022/01/05 06:16:04;;;;;;;11.02;0.90;;;3.90;99.90;;;;;;5083476;28;20079;-82
2022/01/05 06:18:29;;;;;;;8.13;0.95;;;3.90;99.90;;;;;;5065728;28;20403;-82
2022/01/05 06:20:55;;;;;;;10.85;0.85;;;4.00;99.90;;;;;;5083224;28;20058;-82
2022/01/05 06:23:21;;;;;;;10.88;1.13;;;4.00;99.90;;;;;;5083734;28;20050;-81
2022/01/05 06:25:46;;;;;;;3.92;0.75;;;4.10;99.90;;;;;;5083904;28;20425;-81
2022/01/05 06:28:12;;;;;;;6.32;1.30;;;4.10;99.90;;;;;;5047963;28;20044;-81
2022/01/05 06:30:41;;;;;;;9.60;0.90;;;4.10;99.90;;;;;;5083923;28;20160;-81
2022/01/05 06:33:07;;;;;;;7.75;1.30;;;4.10;99.90;;;;;;5065325;28;20059;-80
2022/01/05 06:35:33;;;;;;;8.70;1.08;;;4.10;99.90;;;;;;5065091;28;20051;-82
2022/01/05 06:37:59;;;;;;;7.97;1.15;;;4.20;99.90;;;;;;5031955;28;20051;-82
2022/01/05 06:40:25;;;;;;;14.10;1.70;;;4.40;99.90;;;;;;5048227;28;20381;-82
2022/01/05 06:42:50;;;;;;;8.88;1.00;;;4.20;99.90;;;;;;5048578;28;20071;-82
2022/01/05 06:45:16;;;;;;;9.95;0.70;;;4.70;99.90;;;;;;5048165;28;20106;-82
2022/01/05 06:47:42;;;;;;;16.00;1.45;;;4.30;99.90;;;;;;5083925;28;20078;-82
2022/01/05 06:50:09;;;;;;;12.68;1.20;;;4.30;99.90;;;;;;5047898;28;20071;-82
2022/01/05 06:52:35;;;;;;;11.02;1.02;;;4.40;99.90;;;;;;5065329;28;20083;-81
2022/01/05 06:55:01;;;;;;;3.35;0.80;;;5.60;99.90;;;;;;5048582;28;20048;-81
2022/01/05 06:57:27;;;;;;;13.93;1.40;;;4.50;99.90;;;;;;5068487;28;20170;-81
2022/01/05 06:59:52;;;;;;;21.73;1.90;;;4.50;99.90;;;;;;5051843;28;20044;-81
2022/01/05 07:02:18;;;;;;;13.40;1.30;;;4.50;99.90;;;;;;5051729;28;20613;-81
2022/01/05 07:04:44;;;;;;;8.55;1.65;;;4.50;99.90;;;;;;5069397;28;20255;-81
2022/01/05 07:07:09;;;;;;;12.05;1.75;;;4.50;99.90;;;;;;5068176;28;20127;-81
2022/01/05 07:09:35;;;;;;;9.30;0.55;;;4.50;99.90;;;;;;5052246;28;20192;-81
2022/01/05 07:12:01;;;;;;;8.20;1.23;;;4.60;99.90;;;;;;5068619;28;20119;-82
2022/01/05 07:14:27;;;;;;;6.43;0.45;;;4.60;99.90;;;;;;5086910;28;20036;-81
2022/01/05 07:16:53;;;;;;;7.18;0.90;;;4.60;99.90;;;;;;5068646;28;20058;-81
2022/01/05 07:19:21;;;;;;;9.98;1.02;;;4.50;99.90;;;;;;5086361;28;20052;-81
2022/01/05 07:21:48;;;;;;;6.38;0.70;;;4.50;99.90;;;;;;5087090;28;20052;-81
2022/01/05 07:24:17;;;;;;;12.60;1.10;;;5.60;99.90;;;;;;5086254;28;20525;-81
2022/01/05 07:26:43;;;;;;;11.98;1.17;;;5.90;99.90;;;;;;5087030;28;20048;-81
2022/01/05 07:29:09;;;;;;;6.20;0.80;;;4.50;99.90;;;;;;5068878;28;20530;-80
2022/01/05 07:31:35;;;;;;;6.72;0.88;;;4.50;99.90;;;;;;5086707;28;20123;-80
2022/01/05 07:34:00;;;;;;;7.47;0.70;;;4.50;99.90;;;;;;5068259;28;20125;-80
2022/01/05 07:36:26;;;;;;;6.47;0.70;;;4.50;99.90;;;;;;5068253;28;20042;-80
2022/01/05 07:38:52;;;;;;;11.63;0.77;;;4.50;99.90;;;;;;5068505;28;20101;-80
2022/01/05 07:41:18;;;;;;;9.35;0.80;;;4.50;99.90;;;;;;5086265;28;20036;-79
2022/01/05 07:43:43;;;;;;;5.40;0.65;;;4.50;99.90;;;;;;5086659;28;20079;-81
2022/01/05 07:46:09;;;;;;;4.90;0.80;;;4.60;99.90;;;;;;5067667;28;20113;-79
2022/01/05 07:48:35;;;;;;;7.65;0.63;;;4.50;99.90;;;;;;5051096;28;20123;-80
2022/01/05 07:51:01;;;;;;;12.52;0.93;;;4.70;99.90;;;;;;5086033;28;20461;-80
2022/01/05 07:53:27;;;;;;;5.70;0.90;;;4.60;99.90;;;;;;5067619;28;20047;-80
2022/01/05 07:55:52;;;;;;;5.10;0.75;;;4.60;99.90;;;;;;5067911;28;20040;-79
2022/01/05 07:58:20;;;;;;;10.32;1.40;;;4.60;99.90;;;;;;5086130;28;20044;-79
2022/01/05 08:00:45;;;;;;;13.20;0.80;;;4.60;99.90;;;;;;5086518;28;20489;-79
2022/01/05 08:03:11;;;;;;;14.60;0.85;;;4.60;99.90;;;;;;5086362;28;20074;-79
2022/01/05 08:05:37;;;;;;;7.43;1.08;;;4.70;99.90;;;;;;5067563;28;20507;-79
2022/01/05 08:08:03;;;;;;;6.07;0.55;;;4.80;99.90;;;;;;5066492;28;20130;-80
2022/01/05 08:10:28;;;;;;;16.42;0.82;;;4.90;99.90;;;;;;5085245;28;20428;-80
2022/01/05 08:12:54;;;;;;;11.52;0.75;;;4.90;99.90;;;;;;5051910;28;20040;-80
2022/01/05 08:15:20;;;;;;;7.22;0.77;;;4.90;99.90;;;;;;5067146;28;20404;-80
2022/01/05 08:17:46;;;;;;;8.15;0.77;;;6.70;99.90;;;;;;5067471;28;20044;-80
2022/01/05 08:20:12;;;;;;;10.30;1.23;;;5.00;99.90;;;;;;5067408;28;20109;-80
2022/01/05 08:22:44;;;;;;;5.57;0.98;;;5.00;99.90;;;;;;5067074;28;20565;-80
2022/01/05 08:25:12;;;;;;;6.00;1.20;;;5.00;99.90;;;;;;5066646;28;20138;-80
2022/01/05 08:27:46;;;;;;;5.47;0.80;;;5.00;99.90;;;;;;5085400;28;20044;-80
2022/01/05 08:30:23;;;;;;;11.40;0.75;;;5.00;99.90;;;;;;5067576;28;20492;-80
2022/01/05 08:32:51;;;;;;;9.93;1.02;;;5.00;99.90;;;;;;5085271;28;20055;-80
2022/01/05 08:35:18;;;;;;;5.70;0.93;;;5.00;99.90;;;;;;5050241;28;20106;-80
2022/01/05 08:37:46;;;;;;;7.63;0.63;;;5.70;99.90;;;;;;5085406;28;20428;-80
2022/01/05 08:40:18;;;;;;;7.43;1.10;;;5.10;99.90;;;;;;5067313;28;20086;-80
2022/01/05 08:42:44;;;;;;;13.65;1.58;;;6.20;99.90;;;;;;5067567;28;20074;-80
2022/01/05 08:45:10;;;;;;;6.70;0.63;;;5.20;99.90;;;;;;5066507;28;20050;-80
2022/01/05 08:47:36;;;;;;;17.17;1.58;;;5.20;99.90;;;;;;5085506;28;20445;-80
2022/01/05 08:50:02;;;;;;;8.10;0.85;;;5.90;99.90;;;;;;5085065;28;20040;-81
2022/01/05 08:52:29;;;;;;;12.32;1.73;;;5.30;99.90;;;;;;5066513;28;20055;-80
2022/01/05 08:54:55;;;;;;;10.82;1.00;;;5.30;99.90;;;;;;5085178;28;20040;-80
2022/01/05 08:57:21;;;;;;;11.77;1.10;;;5.40;99.90;;;;;;5050313;28;20108;-80
2022/01/05 08:59:47;;;;;;;16.17;1.27;;;5.50;99.90;;;;;;5085278;28;20476;-80
2022/01/05 09:02:16;;;;;;;7.65;1.35;;;5.50;99.90;;;;;;5084429;28;20048;-80
2022/01/05 09:04:42;;;;;;;17.52;1.15;;;5.50;99.90;;;;;;5085144;28;20325;-80
2022/01/05 09:07:08;;;;;;;14.00;1.63;;;5.50;99.90;;;;;;5066681;28;20119;-80
2022/01/05 09:09:34;;;;;;;16.92;1.20;;;5.50;99.90;;;;;;5085179;28;20486;-79
2022/01/05 09:12:00;;;;;;;23.30;1.60;;;5.50;99.90;;;;;;5066532;28;20090;-79
2022/01/05 09:14:26;;;;;;;15.13;1.48;;;6.50;99.90;;;;;;5066028;28;20087;-80
2022/01/05 09:16:52;;;;;;;11.93;1.40;;;5.50;99.90;;;;;;5066656;28;20043;-79
2022/01/05 09:19:18;;;;;;;10.40;1.15;;;5.80;99.90;;;;;;5083230;28;20496;-80
2022/01/05 09:21:48;;;;;;;6.25;1.83;;;5.50;99.90;;;;;;5066700;28;20149;-79
2022/01/05 09:24:18;;;;;;;9.88;1.10;;;6.80;99.90;;;;;;5065931;28;20056;-79
2022/01/05 09:26:44;;;;;;;6.18;0.95;;;6.00;99.90;;;;;;5066014;28;20566;-79
2022/01/05 09:29:10;;;;;;;10.00;1.02;;;5.60;99.90;;;;;;5084218;28;20062;-79
2022/01/05 09:31:36;;;;;;;13.20;1.40;;;5.60;99.90;;;;;;5048929;28;20087;-80
2022/01/05 09:34:02;;;;;;;9.98;1.25;;;5.70;99.90;;;;;;5049885;28;20070;-79
2022/01/05 09:36:38;;;;;;;16.15;1.10;;;5.70;99.90;;;;;;5084000;28;20484;-79
2022/01/05 09:42:00;;;;;;;8.00;1.35;;;5.90;99.90;;;;;;5051992;28;20158;-79
2022/01/05 09:44:43;;;;;;;15.38;1.73;;;6.00;99.90;;;;;;5066189;28;20403;-79
2022/01/05 09:47:29;;;;;;;15.98;1.58;;;6.10;99.90;;;;;;5066174;28;20175;-79
2022/01/05 09:50:04;;;;;;;10.35;1.15;;;6.20;99.90;;;;;;5066262;28;20079;-80
2022/01/05 09:52:34;;;;;;;14.80;1.77;;;6.30;99.90;;;;;;5048875;28;20055;-80
2022/01/05 09:55:02;;;;;;;15.48;1.73;;;6.50;99.90;;;;;;5083767;28;20428;-80
2022/01/05 09:57:29;;;;;;;14.05;2.20;;;6.40;99.90;;;;;;5065706;28;20111;-80
2022/01/05 09:59:56;;;;;;;11.45;1.52;;;7.10;99.90;;;;;;5049369;28;20127;-80
2022/01/05 10:02:23;;;;;;;7.25;1.30;;;6.30;99.90;;;;;;5062814;28;20044;-80
2022/01/05 10:04:49;;;;;;;8.18;1.33;;;6.30;99.90;;;;;;5030159;28;20147;-80
2022/01/05 10:07:20;;;;;;;15.77;1.63;;;8.10;99.90;;;;;;5046874;28;20152;-78
2022/01/05 10:12:52;;;;;;;13.18;1.48;;;6.50;99.90;;;;;;5049216;28;20048;-79
2022/01/05 10:15:19;;;;;;;10.57;1.30;;;6.60;99.90;;;;;;5063669;28;20047;-79
2022/01/05 10:17:45;;;;;;;9.77;1.48;;;8.50;99.90;;;;;;5046853;28;20029;-80
2022/01/05 10:20:12;;;;;;;15.05;1.38;;;7.20;99.90;;;;;;5045655;28;20051;-79
2022/01/05 10:22:39;;;;;;;16.50;1.88;;;8.30;99.90;;;;;;5047336;28;20048;-79
2022/01/05 10:25:16;;;;;;;11.80;1.90;;;6.80;99.90;;;;;;5080228;28;20131;-79
2022/01/05 10:27:44;;;;;;;9.32;1.15;;;6.90;99.90;;;;;;5062961;28;20133;-79
2022/01/05 10:30:14;;;;;;;19.75;2.28;;;7.90;99.90;;;;;;5046812;28;20064;-79
2022/01/05 10:32:44;;;;;;;13.38;1.50;;;7.00;99.90;;;;;;5050947;28;20531;-79
2022/01/05 10:35:16;;;;;;;15.45;1.58;;;7.10;99.90;;;;;;5050516;28;20425;-81
2022/01/05 10:37:59;;;;;;;10.13;1.23;;;7.20;99.90;;;;;;5049580;28;20055;-81
2022/01/05 10:40:25;;;;;;;8.70;1.48;;;7.20;99.90;;;;;;5050375;28;20123;-81
2022/01/05 10:42:56;;;;;;;14.35;1.38;;;7.60;99.90;;;;;;5034199;28;20119;-82
2022/01/05 10:45:37;;;;;;;14.48;1.65;;;7.30;99.90;;;;;;5067123;28;20151;-81
2022/01/05 10:48:11;;;;;;;13.20;1.67;;;8.70;99.90;;;;;;5086573;28;20044;-80
2022/01/05 10:50:38;;;;;;;22.17;1.88;;;7.30;99.90;;;;;;5068271;28;20574;-80
2022/01/05 10:53:05;;;;;;;22.23;2.58;;;7.30;99.90;;;;;;5068801;28;20040;-79
2022/01/05 10:55:32;;;;;;;15.00;1.90;;;7.20;99.90;;;;;;5052759;28;20105;-79
2022/01/05 10:58:11;;;;;;;15.63;2.05;;;7.20;99.90;;;;;;5087107;28;20381;-79
2022/01/05 11:00:45;;;;;;;14.27;2.10;;;7.30;99.90;;;;;;5052622;28;20055;-79
2022/01/05 11:03:40;;;;;;;12.48;1.92;;;7.30;99.90;;;;;;5069035;28;20139;-79
2022/01/05 11:06:14;;;;;;;18.77;2.20;;;7.40;99.90;;;;;;5068338;28;20059;-81
2022/01/05 11:09:05;;;;;;;16.90;2.10;;;7.50;99.90;;;;;;5068733;28;20048;-81
2022/01/05 11:11:46;;;;;;;19.52;2.35;;;7.40;99.90;;;;;;5068788;28;20044;-81
2022/01/05 11:14:18;;;;;;;14.07;1.40;;;7.70;99.90;;;;;;5086381;28;20040;-81
2022/01/05 11:16:47;;;;;;;12.45;1.83;;;7.70;99.90;;;;;;5069093;28;20036;-80
2022/01/05 11:19:29;;;;;;;15.27;1.45;;;9.00;99.90;;;;;;5086181;28;20058;-80
2022/01/05 11:22:00;;;;;;;19.95;1.98;;;7.80;99.90;;;;;;5068512;28;20056;-81
2022/01/05 11:24:30;;;;;;;17.52;2.10;;;7.80;99.90;;;;;;5068411;28;20046;-81
2022/01/05 11:26:57;;;;;;;20.38;2.17;;;7.80;99.90;;;;;;5067903;28;20093;-80
2022/01/05 11:29:23;;;;;;;18.20;2.00;;;7.80;99.90;;;;;;5068828;28;20389;-80
2022/01/05 11:31:49;;;;;;;21.70;2.05;;;7.80;99.90;;;;;;5051432;28;20051;-80
2022/01/05 11:34:15;;;;;;;18.35;2.00;;;7.90;99.90;;;;;;5068703;28;20436;-80
2022/01/05 11:36:42;;;;;;;20.27;2.30;;;8.10;99.90;;;;;;5086022;28;20055;-81
2022/01/05 11:39:09;;;;;;;12.25;1.92;;;9.30;99.90;;;;;;5086522;28;20342;-81
2022/01/05 11:41:43;;;;;;;13.52;2.13;;;8.10;99.90;;;;;;5086109;28;20499;-81
2022/01/05 11:44:09;;;;;;;21.30;2.00;;;9.40;99.90;;;;;;5086454;28;20399;-81
2022/01/05 11:46:35;;;;;;;15.40;2.50;;;8.10;99.90;;;;;;5086111;28;20040;-81
2022/01/05 11:49:08;;;;;;;21.38;2.03;;;9.40;99.90;;;;;;5068139;28;20178;-80
2022/01/05 11:51:42;;;;;;;22.13;3.88;;;8.00;99.90;;;;;;5086843;28;20411;-80
2022/01/05 11:54:24;;;;;;;14.75;2.58;;;8.00;99.90;;;;;;5086363;28;20059;-80
2022/01/05 11:57:11;;;;;;;12.88;1.67;;;7.90;99.90;;;;;;5067590;28;20143;-80
2022/01/05 11:59:41;;;;;;;12.38;1.65;;;7.90;99.90;;;;;;5051638;28;20040;-81
2022/01/05 12:02:13;;;;;;;22.95;1.92;;;7.90;99.90;;;;;;5067845;28;20055;-81
2022/01/05 12:04:57;;;;;;;17.73;2.75;;;7.90;99.90;;;;;;5068084;28;20080;-80
2022/01/05 12:07:43;;;;;;;13.25;1.85;;;7.90;99.90;;;;;;5067815;28;20097;-80
2022/01/05 12:10:24;;;;;;;14.82;1.95;;;7.90;99.90;;;;;;5067250;28;20062;-80
2022/01/05 12:13:05;;;;;;;11.57;2.20;;;8.00;99.90;;;;;;5051315;28;20066;-80
2022/01/05 12:15:43;;;;;;;13.80;1.73;;;8.00;99.90;;;;;;5050735;28;20043;-80
2022/01/05 12:18:24;;;;;;;11.25;1.35;;;7.90;99.90;;;;;;5084651;28;20131;-80
2022/01/05 12:20:50;;;;;;;9.23;1.02;;;7.80;99.90;;;;;;5067439;28;20419;-81
2022/01/05 12:23:24;;;;;;;8.88;1.48;;;8.00;99.90;;;;;;5066863;28;20048;-80
2022/01/05 12:26:05;;;;;;;8.07;1.85;;;7.70;99.90;;;;;;5085993;28;20122;-80
2022/01/05 12:28:59;;;;;;;5.55;0.80;;;8.50;99.90;;;;;;5086068;28;20055;-80
2022/01/05 12:31:54;;;;;;;11.63;1.75;;;7.60;99.90;;;;;;5084670;28;20101;-79
2022/01/05 12:34:54;;;;;;;16.45;1.67;;;7.50;99.90;;;;;;5084651;28;20131;-79
2022/01/05 12:37:40;;;;;;;11.77;1.88;;;7.50;99.90;;;;;;5031382;28;20048;-80
2022/01/05 12:40:22;;;;;;;8.05;1.25;;;7.60;99.90;;;;;;5085235;28;20040;-81
2022/01/05 12:42:49;;;;;;;13.43;2.10;;;7.70;99.90;;;;;;5085190;28;20496;-79
2022/01/05 12:45:43;;;;;;;13.82;2.42;;;7.70;99.90;;;;;;5085131;28;20286;-79
2022/01/05 12:48:32;;;;;;;17.55;1.92;;;7.70;99.90;;;;;;5066585;28;20044;-79
2022/01/05 12:51:22;;;;;;;21.88;2.05;;;7.70;99.90;;;;;;5084871;28;20048;-79
2022/01/05 12:54:07;;;;;;;12.05;1.27;;;8.60;99.90;;;;;;5049285;28;20047;-79
2022/01/05 12:56:39;;;;;;;10.25;1.67;;;7.50;99.90;;;;;;5084855;28;20051;-80
2022/01/05 12:59:08;;;;;;;14.65;1.60;;;5.70;99.90;;;;;;5085440;28;20040;-80
2022/01/05 13:01:34;;;;;;;17.63;1.83;;;7.40;99.90;;;;;;5084519;28;20036;-80
2022/01/05 13:04:02;;;;;;;11.00;1.90;;;7.40;99.90;;;;;;5085280;28;20052;-80